Startpagina
METAR-TAF:

METAR-TAF

Vliegvelden :

Luchthaven van Khartoem

Khartoem, Soedan

breedte: 15-36N, lengte: 032-33E, hoogte: 382 m

Actueel weer

Dit bericht is 47 minuten geleden gemaakt, om 02:00 UTC
Wind 12 kt uit het noorden
Temperatuur 16°C
Vochtigheid 17%
Druk 1016 hPa
Zicht 10 km of meer
geen wolken onder 1500 m en geen cumulonimbus

METAR: HSSS 190200Z 36012KT CAVOK 16/M09 Q1016 NOSIG

Tijdstip: 05:47 (02:47 UTC)

Verwachting

Dit bericht is 3 uur en het 47 minuten geleden gemaakt, om 23:00 UTC
Verwachting geldig van 19 om 00 UTC tot 20 om 06 UTC
Wind 8 kt uit het noorden met uitschieters tot 18 kt
Zicht 10 km of meer
geen wolken onder 1500 m en geen cumulonimbus
Kans 30% :
Tijdelijke
van 19 om 05 UTC tot 19 om 09 UTC
Zicht: 6000 m

TAF: HSSS 182300Z 1900/2006 36008G18KT CAVOK PROB30 TEMPO 1905/1909 6000

Waarnemingen en weersverwachtingen van meer dan 4000 vliegvelden (METAR en TAF).

De beschikbare stations zijn de gele en rode punten op de kaart.

Ga met uw muis naar het station om de naam te zien.

Klik dan om waarnemingen en weersverwachtingen te zien.

kaart wijzigen: klik op de groene knoppen met een zwart kruis om in te zoomen, op de groene knop met een streepje om uit te zoomen of op de groene pijlen voor aangrenzende kaarten.


METAR-TAF: